Time;durP1;ratioP1;P1;durP2;ratioP2;P2;SDS_P1;SDS_P2;PMS_P1;PMS_P2;Temp;Humidity;BMP_temperature;BMP_pressure;BME280_temperature;BME280_humidity;BME280_pressure;Samples;Min_cycle;Max_cycle;Signal;HPM_P1;HPM_P2
2022/10/12 00:00:48;;;;;;;19.80;8.07;;;;;;;4.83;100.00;102675.47;5053313;28;20029;-76
2022/10/12 00:03:13;;;;;;;15.00;7.53;;;;;;;4.79;100.00;102668.56;5053022;28;20044;-76
2022/10/12 00:05:38;;;;;;;14.55;7.57;;;;;;;4.73;100.00;102667.06;5069025;28;20125;-76
2022/10/12 00:08:04;;;;;;;16.48;7.93;;;;;;;4.71;100.00;102670.66;5052000;28;20045;-76
2022/10/12 00:10:29;;;;;;;19.10;7.65;;;;;;;4.70;100.00;102669.81;5053555;28;20060;-76
2022/10/12 00:12:55;;;;;;;14.05;7.13;;;;;;;4.66;100.00;102664.66;5068349;28;20022;-75
2022/10/12 00:15:20;;;;;;;14.50;7.78;;;;;;;4.63;100.00;102662.16;5052988;28;20076;-76
2022/10/12 00:17:46;;;;;;;15.52;7.60;;;;;;;4.59;100.00;102667.53;5051918;28;20033;-75
2022/10/12 00:20:11;;;;;;;12.13;6.88;;;;;;;4.53;100.00;102662.47;5053057;28;20116;-76
2022/10/12 00:22:36;;;;;;;14.70;6.63;;;;;;;4.48;100.00;102661.81;5052448;28;20037;-76
2022/10/12 00:25:02;;;;;;;17.90;7.68;;;;;;;4.40;100.00;102659.44;5052750;28;20535;-76
2022/10/12 00:27:27;;;;;;;13.18;7.55;;;;;;;4.35;100.00;102660.50;5052988;28;20396;-76
2022/10/12 00:29:53;;;;;;;14.55;6.32;;;;;;;4.32;100.00;102668.53;5052855;28;20033;-76
2022/10/12 00:32:19;;;;;;;19.90;8.73;;;;;;;4.28;100.00;102661.63;5053192;28;20033;-76
2022/10/12 00:34:44;;;;;;;12.13;6.43;;;;;;;4.23;100.00;102659.16;5053021;28;20029;-76
2022/10/12 00:37:10;;;;;;;18.08;8.13;;;;;;;4.13;100.00;102655.97;5051110;28;20033;-77
2022/10/12 00:39:35;;;;;;;11.60;6.10;;;;;;;4.08;100.00;102655.28;5052559;28;20404;-75
2022/10/12 00:42:00;;;;;;;13.15;8.02;;;;;;;4.03;100.00;102644.91;5052947;28;20116;-75
2022/10/12 00:44:36;;;;;;;19.08;8.15;;;;;;;4.03;100.00;102652.81;5052844;28;20039;-76
2022/10/12 00:47:12;;;;;;;18.20;6.78;;;;;;;3.99;100.00;102651.19;5052598;28;20500;-75
2022/10/12 00:49:38;;;;;;;16.65;8.73;;;;;;;3.94;100.00;102657.50;5053097;28;20083;-75
2022/10/12 00:52:07;;;;;;;11.82;7.35;;;;;;;3.94;100.00;102658.41;5068006;28;20599;-75
2022/10/12 00:54:39;;;;;;;14.60;6.78;;;;;;;3.94;100.00;102649.63;5052987;28;20090;-76
2022/10/12 00:57:05;;;;;;;;;;;;;;;3.84;100.00;102649.06;5053416;28;20029;-75
2022/10/12 00:59:41;;;;;;;22.67;8.35;;;;;;;3.76;100.00;102656.34;5052454;28;19912;-75
2022/10/12 01:02:07;;;;;;;10.30;6.35;;;;;;;3.73;100.00;102653.81;5052628;28;20033;-76
2022/10/12 01:04:32;;;;;;;18.73;8.90;;;;;;;3.70;100.00;102654.78;5051532;28;20079;-75
2022/10/12 01:06:59;;;;;;;14.40;7.22;;;;;;;3.68;100.00;102659.25;5051420;28;20122;-75
2022/10/12 01:09:26;;;;;;;10.30;6.28;;;;;;;3.63;100.00;102653.28;5052645;28;20049;-76
2022/10/12 01:11:51;;;;;;;15.15;7.50;;;;;;;3.60;100.00;102645.44;5053359;28;20044;-75
2022/10/12 01:14:17;;;;;;;14.07;6.78;;;;;;;3.59;100.00;102646.38;5052468;28;20396;-76
2022/10/12 01:16:52;;;;;;;16.45;8.23;;;;;;;3.57;100.00;102648.19;5052533;28;20057;-75
2022/10/12 01:19:27;;;;;;;13.30;6.65;;;;;;;3.56;100.00;102649.13;5053096;28;20053;-75
2022/10/12 01:22:08;;;;;;;19.52;6.45;;;;;;;3.55;100.00;102640.34;5052809;28;20032;-75
2022/10/12 01:24:40;;;;;;;19.52;9.20;;;;;;;3.50;100.00;102637.84;5052266;28;20530;-75
2022/10/12 01:27:29;;;;;;;16.08;8.18;;;;;;;3.51;100.00;102633.47;5052347;28;20037;-75
2022/10/12 01:30:13;;;;;;;14.15;8.15;;;;;;;3.51;100.00;102631.69;5052568;28;20032;-75
2022/10/12 01:32:53;;;;;;;14.82;7.07;;;;;;;3.50;100.00;102627.34;5067915;28;20405;-75
2022/10/12 01:35:32;;;;;;;10.70;6.57;;;;;;;3.42;100.00;102626.72;5052923;28;20037;-76
2022/10/12 01:38:23;;;;;;;12.07;6.78;;;;;;;3.34;100.00;102626.97;5051801;28;20401;-75
2022/10/12 01:40:58;;;;;;;12.77;6.78;;;;;;;3.29;100.00;102620.13;5051254;28;20048;-75
2022/10/12 01:43:36;;;;;;;14.02;6.20;;;;;;;3.29;100.00;102622.75;5052202;28;20043;-76
2022/10/12 01:46:27;;;;;;;8.38;5.70;;;;;;;3.28;100.00;102618.41;5052740;28;20072;-75
2022/10/12 01:48:56;;;;;;;14.48;6.47;;;;;;;3.27;100.00;102617.56;5053114;28;20037;-77
2022/10/12 01:51:42;;;;;;;8.98;5.53;;;;;;;3.28;100.00;102615.78;5056438;28;20044;-76
2022/10/12 01:54:22;;;;;;;15.63;7.50;;;;;;;3.30;100.00;102609.56;5055757;28;20060;-76
2022/10/12 01:57:03;;;;;;;11.93;7.50;;;;;;;3.30;100.00;102611.31;5056122;28;20450;-76
2022/10/12 01:59:39;;;;;;;15.45;8.25;;;;;;;3.31;100.00;102607.78;5056328;28;20258;-76
2022/10/12 02:02:29;;;;;;;15.15;7.47;;;;;;;3.23;100.00;102607.19;5056047;28;20021;-75
2022/10/12 02:05:07;;;;;;;14.23;7.15;;;;;;;3.22;100.00;102603.66;5056087;28;20025;-76
2022/10/12 02:07:40;;;;;;;9.88;5.78;;;;;;;3.16;100.00;102604.75;5055589;28;20465;-76
2022/10/12 02:10:18;;;;;;;11.23;6.32;;;;;;;3.14;100.00;102601.28;5055517;28;20089;-76
2022/10/12 02:12:48;;;;;;;11.88;6.32;;;;;;;3.13;100.00;102604.81;5055015;28;20032;-76
2022/10/12 02:15:15;;;;;;;13.00;6.35;;;;;;;3.10;100.00;102598.78;5055412;28;20033;-76
2022/10/12 02:17:43;;;;;;;10.05;6.63;;;;;;;3.10;100.00;102599.66;5055266;28;20453;-76
2022/10/12 02:20:14;;;;;;;13.50;7.47;;;;;;;3.07;100.00;102599.75;5055444;28;20108;-76
2022/10/12 02:22:42;;;;;;;11.87;7.23;;;;;;;3.00;100.00;102595.56;5055398;28;20059;-76
2022/10/12 02:25:11;;;;;;;14.52;8.05;;;;;;;3.00;100.00;102595.56;5055328;28;20266;-76
2022/10/12 02:27:40;;;;;;;16.30;8.10;;;;;;;3.00;100.00;102599.09;5054021;28;20484;-76
2022/10/12 02:30:06;;;;;;;10.85;6.85;;;;;;;2.99;100.00;102596.50;5055594;28;20033;-76
2022/10/12 02:32:58;;;;;;;11.70;7.35;;;;;;;2.94;100.00;102590.50;5055024;28;20115;-75
2022/10/12 02:35:34;;;;;;;9.27;6.07;;;;;;;2.91;100.00;102586.22;5055341;28;20040;-76
2022/10/12 02:38:17;;;;;;;11.43;6.38;;;;;;;2.91;100.00;102582.72;5055556;28;20076;-75
2022/10/12 02:41:00;;;;;;;7.57;5.07;;;;;;;2.85;100.00;102582.91;5055553;28;20033;-75
2022/10/12 02:43:36;;;;;;;9.95;6.97;;;;;;;2.85;100.00;102578.50;5054941;28;20052;-76
2022/10/12 02:46:05;;;;;;;13.57;7.30;;;;;;;2.85;100.00;102573.22;5054764;28;20040;-75
2022/10/12 02:48:32;;;;;;;6.60;5.45;;;;;;;2.85;100.00;102575.00;5054824;28;20029;-75
2022/10/12 02:50:58;;;;;;;12.60;6.68;;;;;;;2.83;100.00;102575.06;5055096;28;20029;-75
2022/10/12 02:53:27;;;;;;;9.45;5.78;;;;;;;2.78;100.00;102572.56;5054909;28;20040;-76
2022/10/12 02:55:59;;;;;;;11.30;5.78;;;;;;;2.73;100.00;102570.97;5054513;28;20033;-76
2022/10/12 02:58:24;;;;;;;9.30;5.43;;;;;;;2.68;100.00;102568.50;5054686;28;20025;-76
2022/10/12 03:00:50;;;;;;;12.07;6.97;;;;;;;2.65;100.00;102568.59;5054070;28;20120;-75
2022/10/12 03:03:15;;;;;;;9.57;7.18;;;;;;;2.63;100.00;102568.63;5054547;28;20061;-75
2022/10/12 03:05:42;;;;;;;16.30;8.23;;;;;;;2.67;100.00;102569.38;5036934;28;20025;-76
2022/10/12 03:08:07;;;;;;;13.10;8.63;;;;;;;2.70;100.00;102569.28;5054461;28;20091;-76
2022/10/12 03:10:32;;;;;;;8.68;6.43;;;;;;;2.72;100.00;102570.13;5054517;28;20061;-76
2022/10/12 03:12:58;;;;;;;13.55;8.48;;;;;;;2.74;100.00;102562.19;5053107;28;20043;-75
2022/10/12 03:15:23;;;;;;;17.52;10.10;;;;;;;2.81;100.00;102569.00;5054774;28;20469;-76
2022/10/12 03:17:49;;;;;;;12.02;7.78;;;;;;;2.86;100.00;102572.34;5054628;28;20037;-76
2022/10/12 03:20:14;;;;;;;11.98;9.27;;;;;;;2.90;100.00;102562.59;5054253;28;20057;-75
2022/10/12 03:22:39;;;;;;;19.00;10.38;;;;;;;2.98;100.00;102560.59;5054217;28;20349;-76
2022/10/12 03:25:05;;;;;;;19.58;10.95;;;;;;;3.04;100.00;102559.53;5054230;28;20032;-75
2022/10/12 03:27:30;;;;;;;16.55;10.05;;;;;;;3.06;100.00;102562.97;5053266;28;20043;-75
2022/10/12 03:29:56;;;;;;;16.45;8.40;;;;;;;3.04;100.00;102560.38;5054321;28;20123;-76
2022/10/12 03:32:21;;;;;;;10.70;7.53;;;;;;;2.99;100.00;102559.69;5054058;28;20036;-76
2022/10/12 03:34:46;;;;;;;18.27;10.05;;;;;;;2.99;100.00;102562.31;5054024;28;20055;-75
2022/10/12 03:37:12;;;;;;;13.45;7.80;;;;;;;2.98;100.00;102560.59;5054049;28;20056;-75
2022/10/12 03:39:37;;;;;;;17.52;10.27;;;;;;;2.96;100.00;102565.03;5054000;28;20033;-76
2022/10/12 03:42:03;;;;;;;15.48;9.85;;;;;;;2.93;100.00;102562.50;5052607;28;20366;-76
2022/10/12 03:44:28;;;;;;;12.27;8.40;;;;;;;2.88;100.00;102567.91;5053657;28;20029;-76
2022/10/12 03:46:53;;;;;;;14.35;8.55;;;;;;;2.82;100.00;102566.31;5053690;28;20115;-76
2022/10/12 03:49:19;;;;;;;11.63;7.30;;;;;;;2.81;100.00;102563.75;5052464;28;20044;-76
2022/10/12 03:51:44;;;;;;;11.98;8.20;;;;;;;2.77;100.00;102562.94;5053426;28;20071;-76
2022/10/12 03:54:09;;;;;;;11.32;7.10;;;;;;;2.73;100.00;102560.47;5053748;28;20435;-76
2022/10/12 03:56:35;;;;;;;13.85;9.25;;;;;;;2.69;100.00;102559.72;5052122;28;20461;-77
2022/10/12 03:59:00;;;;;;;14.60;8.48;;;;;;;2.70;100.00;102563.19;5053578;28;20381;-76
2022/10/12 04:01:25;;;;;;;12.30;8.23;;;;;;;2.69;100.00;102564.09;5053242;28;20045;-76
2022/10/12 04:03:51;;;;;;;17.08;9.98;;;;;;;2.67;100.00;102564.13;5053533;28;20041;-76
2022/10/12 04:06:16;;;;;;;11.35;7.10;;;;;;;2.63;100.00;102559.91;5051630;28;20037;-76
2022/10/12 04:08:42;;;;;;;10.25;7.30;;;;;;;2.55;100.00;102561.88;5053127;28;20307;-76
2022/10/12 04:11:08;;;;;;;10.82;7.25;;;;;;;2.47;100.00;102562.94;5052662;28;20110;-76
2022/10/12 04:13:33;;;;;;;8.90;6.40;;;;;;;2.45;100.00;102562.16;5052452;28;20418;-76
2022/10/12 04:16:03;;;;;;;14.45;8.93;;;;;;;2.42;100.00;102564.00;5052964;28;20449;-76
2022/10/12 04:18:28;;;;;;;9.63;6.60;;;;;;;2.42;100.00;102562.25;5053132;28;20040;-76
2022/10/12 04:20:54;;;;;;;11.30;7.05;;;;;;;2.41;100.00;102562.28;5053237;28;20033;-76
2022/10/12 04:23:19;;;;;;;15.80;9.07;;;;;;;2.42;100.00;102558.75;5053256;28;20033;-76
2022/10/12 04:25:45;;;;;;;14.65;9.18;;;;;;;2.49;100.00;102559.44;5052647;28;20381;-77
2022/10/12 04:28:10;;;;;;;15.75;9.90;;;;;;;2.53;100.00;102554.03;5051688;28;20062;-76
2022/10/12 04:30:35;;;;;;;13.57;7.53;;;;;;;2.56;100.00;102559.19;5053006;28;20044;-77
2022/10/12 04:33:01;;;;;;;11.07;7.10;;;;;;;2.55;100.00;102551.38;5053409;28;20082;-76
2022/10/12 04:35:26;;;;;;;11.23;6.25;;;;;;;2.51;100.00;102549.72;5051801;28;20059;-76
2022/10/12 04:37:51;;;;;;;8.95;6.47;;;;;;;2.51;100.00;102544.47;5052754;28;20088;-76
2022/10/12 04:40:17;;;;;;;11.82;7.88;;;;;;;2.52;100.00;102549.69;5053096;28;20029;-76
2022/10/12 04:42:42;;;;;;;9.45;6.72;;;;;;;2.56;100.00;102539.97;5052622;28;20033;-76
2022/10/12 04:45:08;;;;;;;11.85;8.63;;;;;;;2.60;100.00;102539.81;5052671;28;20033;-77
2022/10/12 04:47:34;;;;;;;15.30;8.68;;;;;;;2.65;100.00;102535.28;5052651;28;20037;-74
2022/10/12 04:50:00;;;;;;;11.55;8.25;;;;;;;2.69;100.00;102536.06;5052589;28;20060;-75
2022/10/12 04:52:25;;;;;;;10.70;7.70;;;;;;;2.71;100.00;102536.84;5052639;28;20067;-75
2022/10/12 04:54:50;;;;;;;13.70;8.73;;;;;;;2.74;100.00;102538.53;5053036;28;20430;-76
2022/10/12 04:57:16;;;;;;;10.40;8.30;;;;;;;2.74;100.00;102534.13;5052755;28;20025;-76
2022/10/12 04:59:41;;;;;;;9.93;8.32;;;;;;;2.80;100.00;102528.69;5053163;28;20112;-75
2022/10/12 05:02:06;;;;;;;10.15;7.63;;;;;;;2.83;100.00;102533.00;5053009;28;20040;-76
2022/10/12 05:04:32;;;;;;;9.30;6.95;;;;;;;2.81;100.00;102533.03;5052425;28;20375;-76
2022/10/12 05:06:57;;;;;;;10.18;7.68;;;;;;;2.82;100.00;102528.63;5052692;28;20040;-76
2022/10/12 05:09:22;;;;;;;9.10;6.55;;;;;;;2.78;100.00;102527.03;5052188;28;20053;-75
2022/10/12 05:11:48;;;;;;;12.50;7.97;;;;;;;2.74;100.00;102531.50;5052380;28;20045;-75
2022/10/12 05:14:13;;;;;;;7.05;5.85;;;;;;;2.69;100.00;102529.91;5052927;28;20170;-75
2022/10/12 05:16:38;;;;;;;8.75;6.95;;;;;;;2.63;100.00;102529.22;5052600;28;20116;-77
2022/10/12 05:19:04;;;;;;;8.85;7.50;;;;;;;2.61;100.00;102530.16;5052221;28;20116;-75
2022/10/12 05:21:29;;;;;;;11.07;7.82;;;;;;;2.56;100.00;102532.06;5052240;28;20143;-76
2022/10/12 05:23:55;;;;;;;10.80;7.85;;;;;;;2.52;100.00;102531.28;5052841;28;20106;-74
2022/10/12 05:26:20;;;;;;;9.13;7.82;;;;;;;2.51;100.00;102541.84;5056184;28;20373;-77
2022/10/12 05:28:45;;;;;;;10.63;6.00;;;;;;;2.47;100.00;102535.81;5056150;28;20481;-75
2022/10/12 05:31:11;;;;;;;10.43;7.13;;;;;;;2.41;100.00;102536.00;5056065;28;20033;-77
2022/10/12 05:33:36;;;;;;;11.60;5.57;;;;;;;2.34;100.00;102529.22;5054773;28;20033;-74
2022/10/12 05:36:02;;;;;;;10.85;5.00;;;;;;;2.31;100.00;102532.78;5056165;28;20029;-78
2022/10/12 05:38:27;;;;;;;13.90;7.82;;;;;;;2.30;100.00;102528.44;5056103;28;20103;-75
2022/10/12 05:40:53;;;;;;;10.13;5.93;;;;;;;2.29;100.00;102530.19;5054522;28;20465;-74
2022/10/12 05:43:18;;;;;;;13.35;7.90;;;;;;;2.28;100.00;102532.88;5055938;28;20089;-78
2022/10/12 05:45:43;;;;;;;8.68;6.15;;;;;;;2.25;100.00;102525.06;5056050;28;20060;-76
2022/10/12 05:48:09;;;;;;;13.70;8.00;;;;;;;2.25;100.00;102528.56;5055877;28;20396;-76
2022/10/12 05:50:34;;;;;;;10.68;8.05;;;;;;;2.27;100.00;102526.75;5056128;28;20029;-76
2022/10/12 05:52:59;;;;;;;15.15;8.05;;;;;;;2.31;100.00;102531.94;5055571;28;20465;-76
2022/10/12 05:55:25;;;;;;;15.15;9.45;;;;;;;2.32;100.00;102537.13;5055827;28;20033;-75
2022/10/12 05:57:50;;;;;;;11.73;6.72;;;;;;;2.32;100.00;102533.66;5054461;28;20055;-76
2022/10/12 06:00:16;;;;;;;11.32;6.43;;;;;;;2.30;100.00;102536.31;5055767;28;20087;-76
2022/10/12 06:02:41;;;;;;;9.93;6.40;;;;;;;2.25;100.00;102530.31;5055769;28;20029;-76
2022/10/12 06:05:07;;;;;;;6.93;5.70;;;;;;;2.23;100.00;102529.53;5055780;28;20447;-76
2022/10/12 06:07:32;;;;;;;9.60;6.03;;;;;;;2.20;100.00;102522.59;5055948;28;20123;-76
2022/10/12 06:09:57;;;;;;;12.07;6.82;;;;;;;2.19;100.00;102520.84;5055273;28;20140;-76
2022/10/12 06:12:23;;;;;;;10.35;6.60;;;;;;;2.20;100.00;102524.34;5054214;28;20056;-76
2022/10/12 06:14:49;;;;;;;8.43;5.55;;;;;;;2.21;100.00;102526.06;5055410;28;20526;-76
2022/10/12 06:17:14;;;;;;;6.60;5.63;;;;;;;2.24;100.00;102518.09;5055053;28;20029;-75
2022/10/12 06:19:39;;;;;;;11.95;7.70;;;;;;;2.26;100.00;102509.28;5055390;28;20389;-75
2022/10/12 06:22:05;;;;;;;12.68;7.20;;;;;;;2.33;100.00;102514.34;5055171;28;20448;-75
2022/10/12 06:24:30;;;;;;;9.30;6.90;;;;;;;2.41;100.00;102515.00;5055167;28;20053;-76
2022/10/12 06:26:56;;;;;;;9.48;6.22;;;;;;;2.49;100.00;102515.59;5055214;28;20060;-77
2022/10/12 06:29:22;;;;;;;16.08;8.93;;;;;;;2.56;100.00;102518.94;5053652;28;20071;-76
2022/10/12 06:31:48;;;;;;;13.50;8.18;;;;;;;2.63;100.00;102516.06;5054942;28;20579;-77
2022/10/12 06:34:14;;;;;;;14.05;8.88;;;;;;;2.70;100.00;102521.97;5055051;28;20576;-76
2022/10/12 06:36:39;;;;;;;20.70;9.95;;;;;;;2.80;100.00;102518.16;5053935;28;20071;-76
2022/10/12 06:39:05;;;;;;;17.98;10.07;;;;;;;2.92;100.00;102516.94;5054709;28;20390;-76
2022/10/12 06:41:30;;;;;;;15.98;10.73;;;;;;;2.99;100.00;102509.72;5054937;28;20044;-76
2022/10/12 06:43:55;;;;;;;21.40;11.65;;;;;;;3.10;100.00;102512.00;5055132;28;20033;-76
2022/10/12 06:46:21;;;;;;;20.08;10.90;;;;;;;3.20;100.00;102518.69;5054941;28;20032;-76
2022/10/12 06:48:46;;;;;;;14.65;10.30;;;;;;;3.28;100.00;102513.16;5054746;28;20116;-76
2022/10/12 06:51:11;;;;;;;18.52;10.38;;;;;;;3.38;100.00;102517.22;5054488;28;20036;-76
2022/10/12 06:53:37;;;;;;;17.20;11.10;;;;;;;3.45;100.00;102521.38;5054392;28;20025;-75
2022/10/12 06:56:09;;;;;;;17.63;11.15;;;;;;;3.52;100.00;102522.00;5053193;28;20553;-74
2022/10/12 06:58:35;;;;;;;19.13;10.80;;;;;;;3.57;100.00;102522.72;5055200;28;20033;-75
2022/10/12 07:01:02;;;;;;;16.60;10.27;;;;;;;3.60;100.00;102521.72;5054453;28;20082;-75
2022/10/12 07:03:28;;;;;;;14.35;9.82;;;;;;;3.63;100.00;102516.41;5054552;28;20370;-74
2022/10/12 07:05:53;;;;;;;16.42;9.23;;;;;;;3.61;100.00;102515.56;5053760;28;20037;-74
2022/10/12 07:08:18;;;;;;;15.57;8.50;;;;;;;3.58;100.00;102516.53;5053942;28;20531;-75
2022/10/12 07:10:44;;;;;;;12.77;8.48;;;;;;;3.57;100.00;102516.56;5069399;28;20045;-74
2022/10/12 07:13:09;;;;;;;15.50;8.70;;;;;;;3.56;100.00;102517.50;5053570;28;20033;-75
2022/10/12 07:15:34;;;;;;;13.52;8.85;;;;;;;3.56;100.00;102523.63;5054140;28;20365;-75
2022/10/12 07:18:00;;;;;;;13.25;8.95;;;;;;;3.55;100.00;102514.00;5053901;28;20036;-74
2022/10/12 07:20:25;;;;;;;19.90;9.25;;;;;;;3.53;100.00;102515.84;5053558;28;20025;-75
2022/10/12 07:22:51;;;;;;;14.70;9.18;;;;;;;3.56;100.00;102513.09;5053617;28;20053;-78
2022/10/12 07:25:17;;;;;;;13.93;8.82;;;;;;;3.61;100.00;102516.41;5052379;28;20036;-78
2022/10/12 07:27:46;;;;;;;15.63;10.23;;;;;;;3.68;100.00;102519.72;5053709;28;20033;-78
2022/10/12 07:30:12;;;;;;;13.48;9.32;;;;;;;3.76;100.00;102522.91;5053500;28;20029;-78
2022/10/12 07:32:37;;;;;;;16.10;8.80;;;;;;;3.83;100.00;102523.59;5053571;28;20033;-78
2022/10/12 07:35:02;;;;;;;20.50;12.13;;;;;;;3.94;100.00;102523.19;5053519;28;20077;-78
2022/10/12 07:37:28;;;;;;;18.35;13.00;;;;;;;4.10;100.00;102523.50;5053853;28;20037;-78
2022/10/12 07:39:56;;;;;;;18.17;10.52;;;;;;;4.26;100.00;102518.53;5053604;28;20115;-78
2022/10/12 07:42:22;;;;;;;18.80;12.20;;;;;;;4.42;100.00;102524.97;5053319;28;20475;-78
2022/10/12 07:44:47;;;;;;;19.17;11.77;;;;;;;4.58;100.00;102525.22;5053431;28;20033;-76
2022/10/12 07:47:12;;;;;;;17.15;11.35;;;;;;;4.74;100.00;102525.50;5053208;28;20119;-77
2022/10/12 07:49:38;;;;;;;19.00;12.02;;;;;;;4.92;100.00;102530.03;5052011;28;20232;-72
2022/10/12 07:52:03;;;;;;;20.08;12.88;;;;;;;5.15;100.00;102514.19;5052762;28;20445;-74
2022/10/12 07:54:29;;;;;;;23.38;12.90;;;;;;;5.35;100.00;102523.94;5053055;28;20040;-76
2022/10/12 07:56:55;;;;;;;20.42;12.77;;;;;;;5.51;100.00;102527.66;5052924;28;20028;-75
2022/10/12 07:59:20;;;;;;;21.17;13.60;;;;;;;5.71;100.00;102528.59;5053144;28;20029;-74
2022/10/12 08:01:45;;;;;;;21.08;12.82;;;;;;;5.88;100.00;102539.28;5053008;28;20114;-74
2022/10/12 08:04:11;;;;;;;24.80;13.98;;;;;;;6.10;100.00;102541.00;5053465;28;20057;-75
2022/10/12 08:06:36;;;;;;;21.13;13.10;;;;;;;6.29;100.00;102539.25;5053017;28;20037;-73
2022/10/12 08:09:03;;;;;;;24.52;12.73;;;;;;;6.50;100.00;102533.91;5052960;28;20048;-73
2022/10/12 08:11:29;;;;;;;18.83;12.57;;;;;;;6.69;100.00;102534.75;5053035;28;20067;-76
2022/10/12 08:13:55;;;;;;;22.23;11.70;;;;;;;6.89;100.00;102535.59;5068697;28;20040;-75
2022/10/12 08:16:20;;;;;;;23.75;11.68;;;;;;;7.08;100.00;102538.22;5053111;28;20377;-73
2022/10/12 08:18:46;;;;;;;20.60;11.40;;;;;;;7.28;100.00;102529.28;5053840;28;20476;-74
2022/10/12 08:21:13;;;;;;;19.25;10.52;;;;;;;7.51;100.00;102541.41;5052927;28;20032;-72
2022/10/12 08:23:39;;;;;;;22.00;9.85;;;;;;;7.74;100.00;102531.41;5052905;28;20037;-74
2022/10/12 08:26:05;;;;;;;19.98;9.30;;;;;;;7.99;100.00;102533.63;5053409;28;20035;-76
2022/10/12 08:28:31;;;;;;;20.13;9.77;;;;;;;8.25;100.00;102536.69;5053392;28;20033;-74
2022/10/12 08:30:57;;;;;;;11.32;7.55;;;;;;;8.59;100.00;102542.84;5052924;28;20040;-78
2022/10/12 08:33:22;;;;;;;18.73;7.90;;;;;;;9.10;100.00;102554.13;5052746;28;20118;-75
2022/10/12 08:35:48;;;;;;;21.52;7.28;;;;;;;9.82;100.00;102546.41;5052879;28;20104;-76
2022/10/12 08:38:14;;;;;;;15.57;6.43;;;;;;;10.77;100.00;102544.13;5052800;28;20037;-74
2022/10/12 08:41:05;;;;;;;12.93;6.20;;;;;;;11.81;100.00;102527.47;5053240;28;20033;-75
2022/10/12 08:43:55;;;;;;;15.15;7.85;;;;;;;13.34;100.00;102528.06;5052062;28;20033;-76
2022/10/12 08:46:22;;;;;;;14.70;5.82;;;;;;;14.60;95.37;102516.50;5052465;28;20055;-73
2022/10/12 08:49:02;;;;;;;15.52;5.75;;;;;;;15.88;83.53;102499.63;5052770;28;20036;-74
2022/10/12 08:51:31;;;;;;;27.35;6.05;;;;;;;16.36;78.97;102497.16;5052318;28;20029;-73
2022/10/12 08:54:05;;;;;;;13.18;5.90;;;;;;;16.34;74.88;102492.91;5052738;28;20040;-73
2022/10/12 08:56:33;;;;;;;17.02;5.85;;;;;;;15.65;79.22;102505.13;5052804;28;20060;-74
2022/10/12 08:59:00;;;;;;;15.30;5.93;;;;;;;14.77;83.29;102505.28;5053608;28;20036;-73
2022/10/12 09:01:34;;;;;;;15.77;6.93;;;;;;;14.87;85.07;102501.84;5057180;28;20029;-76
2022/10/12 09:04:33;;;;;;;19.73;6.57;;;;;;;15.85;78.76;102504.31;5057338;28;20110;-76
2022/10/12 09:07:25;;;;;;;15.85;5.97;;;;;;;16.78;70.47;102511.38;5057558;28;20339;-78
2022/10/12 09:09:57;;;;;;;19.52;5.95;;;;;;;17.35;63.31;102512.41;5056924;28;20492;-77
2022/10/12 09:12:32;;;;;;;;;;;;;;;17.62;61.83;102518.88;5072529;28;20389;-75
2022/10/12 09:15:02;;;;;;;22.27;6.32;;;;;;;18.63;57.94;102519.06;5056967;28;19920;-74
2022/10/12 09:17:39;;;;;;;25.30;6.30;;;;;;;18.99;53.37;102519.13;5057061;28;20220;-74
2022/10/12 09:20:34;;;;;;;14.15;4.97;;;;;;;19.35;52.05;102515.56;5056620;28;20032;-78
2022/10/12 09:23:13;;;;;;;20.95;5.45;;;;;;;19.86;52.00;102519.31;5057069;28;20238;-74
2022/10/12 09:25:39;;;;;;;20.60;5.32;;;;;;;20.21;51.05;102519.31;5056402;28;20469;-74
2022/10/12 09:28:15;;;;;;;19.55;5.30;;;;;;;20.23;48.13;102515.44;5056442;28;20040;-74
2022/10/12 09:30:50;;;;;;;13.10;4.57;;;;;;;20.71;46.97;102514.97;5056393;28;20484;-75
2022/10/12 09:33:26;;;;;;;18.58;5.25;;;;;;;20.63;47.65;102510.34;5056181;28;20530;-76
2022/10/12 09:35:53;;;;;;;16.08;4.80;;;;;;;20.36;46.30;102511.44;5056298;28;20033;-75
2022/10/12 09:38:20;;;;;;;17.05;5.80;;;;;;;20.48;46.97;102501.16;5055640;28;20032;-74
2022/10/12 09:40:46;;;;;;;16.63;5.43;;;;;;;20.86;47.13;102497.06;5056076;28;20079;-74
2022/10/12 09:43:13;;;;;;;19.45;6.18;;;;;;;20.73;44.32;102494.00;5056442;28;20384;-74
2022/10/12 09:45:39;;;;;;;13.63;5.13;;;;;;;21.01;44.65;102501.81;5056306;28;20055;-75
2022/10/12 09:48:18;;;;;;;16.45;5.43;;;;;;;21.00;45.61;102503.66;5055616;28;20457;-73
2022/10/12 09:51:01;;;;;;;13.30;5.05;;;;;;;20.62;46.08;102489.72;5056343;28;20025;-71
2022/10/12 09:53:26;;;;;;;17.05;5.68;;;;;;;20.77;46.21;102485.38;5055954;28;20025;-73
2022/10/12 09:56:02;;;;;;;17.73;5.25;;;;;;;20.82;45.58;102473.22;5055699;28;20036;-74
2022/10/12 09:58:29;;;;;;;16.40;5.35;;;;;;;20.71;44.48;102472.53;5055635;28;20060;-76
2022/10/12 10:01:16;;;;;;;14.30;5.45;;;;;;;20.59;46.16;102458.44;5056123;28;20104;-77
2022/10/12 10:03:41;;;;;;;17.60;5.57;;;;;;;19.50;47.67;102446.50;5055827;28;20021;-75
2022/10/12 10:06:07;;;;;;;18.13;5.68;;;;;;;18.84;51.26;102440.59;5055834;28;20025;-75
2022/10/12 10:08:42;;;;;;;16.67;5.28;;;;;;;18.28;55.62;102429.06;5055660;28;20366;-74
2022/10/12 10:11:22;;;;;;;14.85;5.53;;;;;;;17.94;55.52;102424.31;5053811;28;20178;-77
2022/10/12 10:13:53;;;;;;;14.27;5.90;;;;;;;17.30;55.86;102428.59;5055986;28;20036;-74
2022/10/12 10:16:22;;;;;;;14.50;5.10;;;;;;;16.66;60.68;102425.50;5055644;28;20377;-75
2022/10/12 10:18:53;;;;;;;18.65;5.28;;;;;;;16.11;67.71;102420.63;5055375;28;20147;-72
2022/10/12 10:21:45;;;;;;;15.82;5.13;;;;;;;15.68;70.46;102421.69;5055855;28;20033;-80
2022/10/12 10:24:30;;;;;;;15.13;4.32;;;;;;;15.42;68.21;102405.16;5051719;28;20140;-79
2022/10/12 10:26:55;;;;;;;11.98;4.60;;;;;;;15.20;66.62;102407.03;5055025;28;20029;-79
2022/10/12 10:29:28;;;;;;;20.35;5.70;;;;;;;15.13;66.90;102414.75;5055277;28;20469;-78
2022/10/12 10:32:25;;;;;;;18.15;5.18;;;;;;;15.17;68.25;102399.25;5055359;28;20036;-75
2022/10/12 10:35:17;;;;;;;15.25;4.78;;;;;;;15.21;69.84;102395.34;5054835;28;20110;-76
2022/10/12 10:37:46;;;;;;;15.88;5.10;;;;;;;15.06;68.54;102386.78;5055718;28;20032;-75
2022/10/12 10:40:24;;;;;;;14.77;4.82;;;;;;;15.13;71.38;102387.09;5054873;28;20047;-74
2022/10/12 10:43:00;;;;;;;13.82;5.13;;;;;;;15.14;69.43;102391.47;5054422;28;20485;-75
2022/10/12 10:45:32;;;;;;;17.52;4.90;;;;;;;15.02;69.34;102393.38;5052895;28;20033;-77
2022/10/12 10:48:06;;;;;;;17.35;5.18;;;;;;;15.11;68.07;102383.72;5054964;28;20449;-76
2022/10/12 10:50:37;;;;;;;13.75;5.05;;;;;;;15.29;72.64;102392.00;5054643;28;20032;-79
2022/10/12 10:53:06;;;;;;;12.90;5.10;;;;;;;15.28;70.46;102395.66;5054945;28;20025;-76
2022/10/12 10:55:43;;;;;;;13.45;5.07;;;;;;;15.08;66.91;102405.41;5054508;28;20268;-76
2022/10/12 10:58:23;;;;;;;17.98;4.88;;;;;;;15.07;68.16;102396.50;5054826;28;20021;-75
2022/10/12 11:00:52;;;;;;;12.27;4.60;;;;;;;15.02;65.97;102396.06;5054746;28;20032;-76
2022/10/12 11:03:24;;;;;;;14.68;4.82;;;;;;;14.95;68.05;102392.19;5054726;28;20035;-74
2022/10/12 11:06:17;;;;;;;12.02;5.38;;;;;;;14.90;68.97;102389.03;5053985;28;20054;-75
2022/10/12 11:08:44;;;;;;;16.42;5.15;;;;;;;14.86;71.15;102383.09;5053839;28;20033;-75
2022/10/12 11:11:22;;;;;;;18.60;5.30;;;;;;;14.87;71.90;102384.81;5054100;28;20080;-74
2022/10/12 11:13:55;;;;;;;13.02;4.88;;;;;;;14.84;69.49;102386.88;5053389;28;20029;-77
2022/10/12 11:16:30;;;;;;;15.90;5.72;;;;;;;14.90;70.90;102386.34;5053570;28;20074;-74
2022/10/12 11:18:59;;;;;;;15.93;5.22;;;;;;;14.87;72.22;102386.63;5053978;28;20025;-73
2022/10/12 11:21:51;;;;;;;18.77;5.68;;;;;;;14.76;71.17;102391.06;5053409;28;20032;-76
2022/10/12 11:24:26;;;;;;;15.52;6.20;;;;;;;14.62;74.59;102394.06;5053870;28;20033;-77
2022/10/12 11:27:09;;;;;;;17.60;6.25;;;;;;;14.46;72.84;102389.94;5054443;28;20025;-78